Time;durP1;ratioP1;P1;durP2;ratioP2;P2;SDS_P1;SDS_P2;PMS_P1;PMS_P2;Temp;Humidity;BMP_temperature;BMP_pressure;BME280_temperature;BME280_humidity;BME280_pressure;Samples;Min_cycle;Max_cycle;Signal;HPM_P1;HPM_P2
2022/03/26 00:00:44;;;;;;;4.63;2.90;;;;;;;;;;5109551;28;20470;-82
2022/03/26 00:03:10;;;;;;;5.68;2.35;;;;;;;;;;5109992;28;20028;-82
2022/03/26 00:05:37;;;;;;;9.20;3.08;;;;;;;;;;5111739;28;20034;-82
2022/03/26 00:08:04;;;;;;;7.80;2.53;;;;;;;;;;5110829;28;20028;-83
2022/03/26 00:10:30;;;;;;;4.57;2.22;;;;;;;;;;5106926;28;20026;-83
2022/03/26 00:12:57;;;;;;;6.25;2.20;;;;;;;;;;5105338;28;20061;-84
2022/03/26 00:15:24;;;;;;;5.97;2.42;;;;;;;;;;5106757;28;20181;-84
2022/03/26 00:17:50;;;;;;;6.07;1.92;;;;;;;;;;5107088;28;20024;-84
2022/03/26 00:20:17;;;;;;;4.18;2.20;;;;;;;;;;5103767;28;20031;-83
2022/03/26 00:22:43;;;;;;;7.32;2.25;;;;;;;;;;5107479;28;20400;-83
2022/03/26 00:25:10;;;;;;;6.30;1.88;;;;;;;;;;5106780;28;20031;-85
2022/03/26 00:27:36;;;;;;;5.10;1.70;;;;;;;;;;5107259;28;20072;-83
2022/03/26 00:30:06;;;;;;;10.95;3.10;;;;;;;;;;5109265;28;20032;-84
2022/03/26 00:32:32;;;;;;;8.35;2.13;;;;;;;;;;5106093;28;20069;-84
2022/03/26 00:34:58;;;;;;;8.80;3.08;;;;;;;;;;5103750;28;20028;-83
2022/03/26 00:37:25;;;;;;;4.88;1.85;;;;;;;;;;5102324;28;20030;-87
2022/03/26 00:39:51;;;;;;;7.78;2.40;;;;;;;;;;5107656;28;20070;-84
2022/03/26 00:42:18;;;;;;;8.70;2.35;;;;;;;;;;5105721;28;20024;-86
2022/03/26 00:44:44;;;;;;;9.13;2.85;;;;;;;;;;5104923;28;20036;-85
2022/03/26 00:47:10;;;;;;;9.10;3.08;;;;;;;;;;5109035;28;20020;-85
2022/03/26 00:49:37;;;;;;;8.63;2.30;;;;;;;;;;5107669;28;20242;-84
2022/03/26 00:52:04;;;;;;;9.35;2.50;;;;;;;;;;5098146;28;20478;-84
2022/03/26 00:54:30;;;;;;;8.50;2.65;;;;;;;;;;5107898;28;20032;-81
2022/03/26 00:56:57;;;;;;;5.82;2.47;;;;;;;;;;5107127;28;20070;-85
2022/03/26 00:59:24;;;;;;;7.82;2.92;;;;;;;;;;5086871;28;20024;-85
2022/03/26 01:01:50;;;;;;;9.25;2.88;;;;;;;;;;5103229;28;20023;-85
2022/03/26 01:04:17;;;;;;;7.60;2.72;;;;;;;;;;5109209;28;20055;-84
2022/03/26 01:06:43;;;;;;;9.48;2.55;;;;;;;;;;5107447;28;20109;-84
2022/03/26 01:09:10;;;;;;;8.60;2.55;;;;;;;;;;5107819;28;20024;-83
2022/03/26 01:11:37;;;;;;;9.23;2.60;;;;;;;;;;5109655;28;20342;-84
2022/03/26 01:14:03;;;;;;;7.22;2.53;;;;;;;;;;5110721;28;20057;-85
2022/03/26 01:16:30;;;;;;;6.57;2.92;;;;;;;;;;5110077;28;20019;-83
2022/03/26 01:18:57;;;;;;;7.53;2.70;;;;;;;;;;5110552;28;20065;-84
2022/03/26 01:21:23;;;;;;;9.85;2.92;;;;;;;;;;5111632;28;20512;-86
2022/03/26 01:23:50;;;;;;;9.75;4.10;;;;;;;;;;5112483;28;20064;-85
2022/03/26 01:26:16;;;;;;;12.65;4.90;;;;;;;;;;5091741;28;20138;-84
2022/03/26 01:28:43;;;;;;;10.60;4.68;;;;;;;;;;5113067;28;20024;-85
2022/03/26 01:31:10;;;;;;;12.10;4.82;;;;;;;;;;5112080;28;20031;-84
2022/03/26 01:33:36;;;;;;;9.50;4.78;;;;;;;;;;5109126;28;20035;-85
2022/03/26 01:36:02;;;;;;;13.48;3.70;;;;;;;;;;5109765;28;20026;-84
2022/03/26 01:38:29;;;;;;;13.63;3.60;;;;;;;;;;5112672;28;20031;-85
2022/03/26 01:40:55;;;;;;;13.50;4.40;;;;;;;;;;5112174;28;20378;-82
2022/03/26 01:43:21;;;;;;;5.47;3.30;;;;;;;;;;5111792;28;20024;-85
2022/03/26 01:45:47;;;;;;;12.15;3.53;;;;;;;;;;5104764;28;20024;-84
2022/03/26 01:48:14;;;;;;;11.35;3.80;;;;;;;;;;5108640;28;20073;-84
2022/03/26 01:50:42;;;;;;;11.32;4.03;;;;;;;;;;5104484;28;20024;-85
2022/03/26 01:53:08;;;;;;;9.07;4.68;;;;;;;;;;5104814;28;20126;-85
2022/03/26 01:55:35;;;;;;;15.70;5.43;;;;;;;;;;5109389;28;20028;-85
2022/03/26 01:58:01;;;;;;;18.48;6.07;;;;;;;;;;5109078;28;20042;-85
2022/03/26 02:00:28;;;;;;;20.23;6.13;;;;;;;;;;5104028;28;20031;-85
2022/03/26 02:02:54;;;;;;;17.17;5.78;;;;;;;;;;5101587;28;20051;-85
2022/03/26 02:05:21;;;;;;;18.17;5.60;;;;;;;;;;5107849;28;20020;-84
2022/03/26 02:07:48;;;;;;;22.17;6.88;;;;;;;;;;5106249;28;20088;-84
2022/03/26 02:10:15;;;;;;;22.77;10.98;;;;;;;;;;5105514;28;20012;-85
2022/03/26 02:12:42;;;;;;;28.00;9.88;;;;;;;;;;5087506;28;20048;-85
2022/03/26 02:15:09;;;;;;;27.40;8.48;;;;;;;;;;5107716;28;20500;-85
2022/03/26 02:17:36;;;;;;;24.40;7.50;;;;;;;;;;5110200;28;20031;-83
2022/03/26 02:20:04;;;;;;;24.10;7.32;;;;;;;;;;5105436;28;20019;-84
2022/03/26 02:22:31;;;;;;;22.30;6.95;;;;;;;;;;5109081;28;20027;-84
2022/03/26 02:24:57;;;;;;;20.30;6.78;;;;;;;;;;5107212;28;20054;-85
2022/03/26 02:27:25;;;;;;;17.55;6.18;;;;;;;;;;5088679;28;20027;-85
2022/03/26 02:29:52;;;;;;;19.60;6.68;;;;;;;;;;5109871;28;20031;-85
2022/03/26 02:32:21;;;;;;;26.75;8.25;;;;;;;;;;5101088;28;20063;-85
2022/03/26 02:34:48;;;;;;;24.80;6.75;;;;;;;;;;5097997;28;20490;-84
2022/03/26 02:37:16;;;;;;;19.40;6.32;;;;;;;;;;5103922;28;20477;-85
2022/03/26 02:39:42;;;;;;;17.92;6.70;;;;;;;;;;5106125;28;20023;-85
2022/03/26 02:42:09;;;;;;;18.63;7.10;;;;;;;;;;5106371;28;20022;-83
2022/03/26 02:44:35;;;;;;;26.70;7.68;;;;;;;;;;5108064;28;20110;-82
2022/03/26 02:47:01;;;;;;;17.88;6.18;;;;;;;;;;5108116;28;20031;-85
2022/03/26 02:49:28;;;;;;;26.85;7.03;;;;;;;;;;5105491;28;20031;-84
2022/03/26 02:51:54;;;;;;;24.45;7.18;;;;;;;;;;5106435;28;20452;-85
2022/03/26 02:54:20;;;;;;;18.10;5.97;;;;;;;;;;5107991;28;20407;-85
2022/03/26 02:56:47;;;;;;;17.77;7.32;;;;;;;;;;5106345;28;20060;-86
2022/03/26 02:59:14;;;;;;;19.80;6.07;;;;;;;;;;5106937;28;20024;-85
2022/03/26 03:01:41;;;;;;;21.05;7.05;;;;;;;;;;5110365;28;20015;-83
2022/03/26 03:04:08;;;;;;;25.73;6.68;;;;;;;;;;5109367;28;20508;-84
2022/03/26 03:06:35;;;;;;;19.42;6.05;;;;;;;;;;5103268;28;20477;-83
2022/03/26 03:09:03;;;;;;;22.10;6.60;;;;;;;;;;5104087;28;20351;-84
2022/03/26 03:11:29;;;;;;;20.55;6.07;;;;;;;;;;5107524;28;20470;-87
2022/03/26 03:13:56;;;;;;;20.95;6.20;;;;;;;;;;5103785;27;20048;-87
2022/03/26 03:16:22;;;;;;;24.75;6.55;;;;;;;;;;5088178;28;20030;-84
2022/03/26 03:18:49;;;;;;;20.73;6.03;;;;;;;;;;5086156;28;20028;-85
2022/03/26 03:21:16;;;;;;;19.15;6.95;;;;;;;;;;5102543;28;20032;-85
2022/03/26 03:23:42;;;;;;;16.42;5.97;;;;;;;;;;5111358;27;20031;-86
2022/03/26 03:26:08;;;;;;;21.73;6.40;;;;;;;;;;5085321;27;20027;-84
2022/03/26 03:28:35;;;;;;;22.70;6.97;;;;;;;;;;5106231;27;20373;-86
2022/03/26 03:31:01;;;;;;;17.52;5.60;;;;;;;;;;5109905;27;20031;-84
2022/03/26 03:33:27;;;;;;;15.82;5.30;;;;;;;;;;5103888;28;20438;-84
2022/03/26 03:35:54;;;;;;;17.70;5.93;;;;;;;;;;5103962;28;20392;-84
2022/03/26 03:38:20;;;;;;;19.17;5.90;;;;;;;;;;5103058;27;20231;-83
2022/03/26 03:40:47;;;;;;;17.63;5.28;;;;;;;;;;5103790;28;20031;-83
2022/03/26 03:43:13;;;;;;;22.25;6.28;;;;;;;;;;5103237;27;20028;-85
2022/03/26 03:45:39;;;;;;;24.50;7.13;;;;;;;;;;5103690;28;20064;-82
2022/03/26 03:48:06;;;;;;;19.17;7.20;;;;;;;;;;5096801;28;20462;-84
2022/03/26 03:50:32;;;;;;;20.92;6.47;;;;;;;;;;5103031;28;20039;-86
2022/03/26 03:52:58;;;;;;;22.55;7.60;;;;;;;;;;5101591;28;20027;-84
2022/03/26 03:55:25;;;;;;;21.75;6.93;;;;;;;;;;5104445;27;20102;-83
2022/03/26 03:57:51;;;;;;;27.05;6.90;;;;;;;;;;5099048;27;20109;-76
2022/03/26 04:00:17;;;;;;;31.58;8.60;;;;;;;;;;5104397;27;20027;-77
2022/03/26 04:02:44;;;;;;;29.67;9.30;;;;;;;;;;5105483;27;20031;-79
2022/03/26 04:05:11;;;;;;;23.70;9.13;;;;;;;;;;5103712;27;20430;-84
2022/03/26 04:07:38;;;;;;;25.98;9.02;;;;;;;;;;5105284;27;20023;-84
2022/03/26 04:10:07;;;;;;;22.95;9.27;;;;;;;;;;5103777;27;20024;-84
2022/03/26 04:12:33;;;;;;;11.88;5.80;;;;;;;;;;5104774;27;20088;-83
2022/03/26 04:14:59;;;;;;;22.45;7.22;;;;;;;;;;5085104;28;20477;-84
2022/03/26 04:17:26;;;;;;;32.78;8.82;;;;;;;;;;5103102;28;20028;-84
2022/03/26 04:19:53;;;;;;;21.60;8.85;;;;;;;;;;5112749;28;20054;-83
2022/03/26 04:22:20;;;;;;;31.35;10.10;;;;;;;;;;5106777;27;20098;-84
2022/03/26 04:24:46;;;;;;;24.80;8.85;;;;;;;;;;5108278;28;20070;-85
2022/03/26 04:27:12;;;;;;;22.92;9.40;;;;;;;;;;5106216;28;20039;-84
2022/03/26 04:29:39;;;;;;;21.30;9.10;;;;;;;;;;5101366;28;20472;-84
2022/03/26 04:32:05;;;;;;;18.33;8.52;;;;;;;;;;5106779;28;20031;-83
2022/03/26 04:34:32;;;;;;;21.67;8.00;;;;;;;;;;5066272;28;20044;-84
2022/03/26 04:36:58;;;;;;;20.73;7.90;;;;;;;;;;5064239;28;20039;-83
2022/03/26 04:39:24;;;;;;;20.25;8.07;;;;;;;;;;5064008;28;20450;-84
2022/03/26 04:41:51;;;;;;;25.42;9.13;;;;;;;;;;5060156;28;20033;-84
2022/03/26 04:44:17;;;;;;;25.52;9.10;;;;;;;;;;5062957;28;20025;-83
2022/03/26 04:46:44;;;;;;;29.60;8.77;;;;;;;;;;5074090;28;20030;-84
2022/03/26 04:49:10;;;;;;;27.00;8.23;;;;;;;;;;5063900;28;20017;-80
2022/03/26 04:51:36;;;;;;;21.58;7.80;;;;;;;;;;5064954;28;20483;-84
2022/03/26 04:54:02;;;;;;;21.98;8.20;;;;;;;;;;5064652;28;20029;-85
2022/03/26 04:56:29;;;;;;;22.55;7.13;;;;;;;;;;5066312;28;20029;-81
2022/03/26 04:58:55;;;;;;;21.75;7.32;;;;;;;;;;5066167;28;20040;-83
2022/03/26 05:01:22;;;;;;;20.08;8.48;;;;;;;;;;5070681;28;20045;-85
2022/03/26 05:03:49;;;;;;;23.15;8.48;;;;;;;;;;5068729;28;20034;-84
2022/03/26 05:06:15;;;;;;;26.80;10.38;;;;;;;;;;5064063;28;20040;-84
2022/03/26 05:08:41;;;;;;;28.27;9.93;;;;;;;;;;5069462;28;20024;-84
2022/03/26 05:11:08;;;;;;;32.72;11.20;;;;;;;;;;5068719;28;20533;-83
2022/03/26 05:13:34;;;;;;;30.55;11.27;;;;;;;;;;5065374;28;20048;-86
2022/03/26 05:16:03;;;;;;;22.83;9.30;;;;;;;;;;5064683;28;20029;-84
2022/03/26 05:18:29;;;;;;;21.45;9.23;;;;;;;;;;5064358;28;21945;-86
2022/03/26 05:20:58;;;;;;;23.67;9.18;;;;;;;;;;5066995;28;20032;-85
2022/03/26 05:23:25;;;;;;;22.20;9.32;;;;;;;;;;5065810;28;20051;-85
2022/03/26 05:25:52;;;;;;;19.23;8.00;;;;;;;;;;5068709;28;20036;-85
2022/03/26 05:28:18;;;;;;;21.75;9.63;;;;;;;;;;5066720;28;20386;-86
2022/03/26 05:30:44;;;;;;;30.52;9.98;;;;;;;;;;5067246;28;20020;-85
2022/03/26 05:33:11;;;;;;;31.02;9.93;;;;;;;;;;5081803;28;20177;-84
2022/03/26 05:35:37;;;;;;;24.67;7.93;;;;;;;;;;5106325;27;20020;-84
2022/03/26 05:38:04;;;;;;;33.92;9.65;;;;;;;;;;5109074;27;20023;-86
2022/03/26 05:40:30;;;;;;;25.10;8.63;;;;;;;;;;5108555;27;20458;-85
2022/03/26 05:42:56;;;;;;;23.73;7.70;;;;;;;;;;5108959;27;20024;-85
2022/03/26 05:45:23;;;;;;;23.98;7.82;;;;;;;;;;5108603;27;20027;-82
2022/03/26 05:47:49;;;;;;;19.17;7.15;;;;;;;;;;5103161;28;20032;-83
2022/03/26 05:50:16;;;;;;;23.50;6.63;;;;;;;;;;5100983;28;20027;-84
2022/03/26 05:52:43;;;;;;;24.77;7.85;;;;;;;;;;5102910;28;20377;-84
2022/03/26 05:55:09;;;;;;;28.85;9.77;;;;;;;;;;5104035;28;20059;-82
2022/03/26 05:57:36;;;;;;;31.73;11.20;;;;;;;;;;5104402;28;20061;-83
2022/03/26 06:00:03;;;;;;;30.00;11.50;;;;;;;;;;5107357;28;20066;-84
2022/03/26 06:02:30;;;;;;;34.00;12.95;;;;;;;;;;5103174;28;20055;-85
2022/03/26 06:04:56;;;;;;;28.63;15.07;;;;;;;;;;5105709;28;20028;-85
2022/03/26 06:07:22;;;;;;;31.80;12.23;;;;;;;;;;5101857;27;20030;-82
2022/03/26 06:09:48;;;;;;;21.42;9.95;;;;;;;;;;5105889;27;20055;-83
2022/03/26 06:12:15;;;;;;;35.15;13.95;;;;;;;;;;5100806;27;20028;-85
2022/03/26 06:14:41;;;;;;;35.20;14.82;;;;;;;;;;5103509;28;20456;-86
2022/03/26 06:17:07;;;;;;;28.75;13.13;;;;;;;;;;5106499;28;20108;-86
2022/03/26 06:19:34;;;;;;;32.83;14.35;;;;;;;;;;5101272;28;20032;-84
2022/03/26 06:22:00;;;;;;;24.50;11.70;;;;;;;;;;5102724;28;20107;-84
2022/03/26 06:24:26;;;;;;;32.70;12.52;;;;;;;;;;5103071;28;20788;-85
2022/03/26 06:26:52;;;;;;;29.60;12.27;;;;;;;;;;5102219;27;20070;-83
2022/03/26 06:29:19;;;;;;;43.08;18.95;;;;;;;;;;5105925;27;20027;-84
2022/03/26 06:31:45;;;;;;;53.78;23.60;;;;;;;;;;5106279;28;20024;-83
2022/03/26 06:34:11;;;;;;;54.30;24.50;;;;;;;;;;5103051;27;20560;-85
2022/03/26 06:36:39;;;;;;;57.50;24.27;;;;;;;;;;5106172;27;20042;-84
2022/03/26 06:39:06;;;;;;;48.20;21.65;;;;;;;;;;5101879;28;20023;-84
2022/03/26 06:41:32;;;;;;;46.00;20.55;;;;;;;;;;5106077;28;20114;-85
2022/03/26 06:43:59;;;;;;;41.58;20.52;;;;;;;;;;5090422;28;20023;-84
2022/03/26 06:46:25;;;;;;;32.40;15.35;;;;;;;;;;5087403;28;20027;-87
2022/03/26 06:48:51;;;;;;;30.73;14.35;;;;;;;;;;5104916;28;20134;-84
2022/03/26 06:51:18;;;;;;;34.20;13.20;;;;;;;;;;5107632;28;20031;-85
2022/03/26 06:53:45;;;;;;;25.95;12.48;;;;;;;;;;5103589;28;20023;-87
2022/03/26 06:56:11;;;;;;;29.65;13.27;;;;;;;;;;5084175;28;20393;-83
2022/03/26 06:58:38;;;;;;;30.02;12.57;;;;;;;;;;5102829;28;20023;-85
2022/03/26 07:01:04;;;;;;;28.45;12.35;;;;;;;;;;5099759;28;20054;-84
2022/03/26 07:03:31;;;;;;;35.85;12.90;;;;;;;;;;5095882;28;20071;-85
2022/03/26 07:05:58;;;;;;;27.58;12.82;;;;;;;;;;5101788;28;20069;-84
2022/03/26 07:08:24;;;;;;;35.35;14.05;;;;;;;;;;5099379;28;20031;-86
2022/03/26 07:10:50;;;;;;;32.83;14.25;;;;;;;;;;5098033;28;20486;-88
2022/03/26 07:13:17;;;;;;;30.33;13.25;;;;;;;;;;5101282;28;20055;-84
2022/03/26 07:15:43;;;;;;;38.85;13.68;;;;;;;;;;5101846;28;20034;-84
2022/03/26 07:18:11;;;;;;;39.35;13.80;;;;;;;;;;5099884;28;20058;-84
2022/03/26 07:20:38;;;;;;;32.25;12.93;;;;;;;;;;5103677;28;20255;-85
2022/03/26 07:23:04;;;;;;;35.42;12.40;;;;;;;;;;5098790;27;20028;-84
2022/03/26 07:25:30;;;;;;;39.10;11.80;;;;;;;;;;5102059;28;20110;-84
2022/03/26 07:28:00;;;;;;;35.15;11.65;;;;;;;;;;5101343;28;20035;-84
2022/03/26 07:30:26;;;;;;;28.45;11.50;;;;;;;;;;5097385;28;20747;-85
2022/03/26 07:32:53;;;;;;;27.27;11.00;;;;;;;;;;5096557;28;20050;-86
2022/03/26 07:35:19;;;;;;;30.20;11.65;;;;;;;;;;5097605;28;20065;-84
2022/03/26 07:37:45;;;;;;;39.00;11.70;;;;;;;;;;5101419;28;20485;-84
2022/03/26 07:40:13;;;;;;;33.40;10.02;;;;;;;;;;5096331;28;20398;-84
2022/03/26 07:42:39;;;;;;;34.15;10.32;;;;;;;;;;5087970;28;20104;-84
2022/03/26 07:45:07;;;;;;;32.17;11.25;;;;;;;;;;5098850;28;20541;-85
2022/03/26 07:53:40;;;;;;;28.52;10.23;;;;;;;;;;5111526;22;20125;-71
2022/03/26 07:56:07;;;;;;;21.80;9.25;;;;;;;;;;5033815;28;20113;-71
2022/03/26 07:58:33;;;;;;;32.75;9.55;;;;;;;;;;5056831;28;20020;-70
2022/03/26 08:00:59;;;;;;;34.15;9.15;;;;;;;;;;5037600;28;20082;-71
2022/03/26 08:03:26;;;;;;;26.25;9.23;;;;;;;;;;5051197;28;20055;-70
2022/03/26 08:05:52;;;;;;;32.35;10.30;;;;;;;;;;5051398;28;20472;-71
2022/03/26 08:08:18;;;;;;;26.98;9.60;;;;;;;;;;5029354;28;20094;-72
2022/03/26 08:10:45;;;;;;;36.10;9.60;;;;;;;;;;5028789;28;20021;-72
2022/03/26 08:13:11;;;;;;;29.50;8.52;;;;;;;;;;5030923;28;20485;-71
2022/03/26 08:15:37;;;;;;;32.90;9.98;;;;;;;;;;5055223;28;20039;-71
2022/03/26 08:18:04;;;;;;;27.30;8.50;;;;;;;;;;5034783;28;20024;-70
2022/03/26 08:20:31;;;;;;;27.88;9.00;;;;;;;;;;5031108;28;20488;-71
2022/03/26 08:22:57;;;;;;;33.45;10.63;;;;;;;;;;5045954;28;20028;-71
2022/03/26 08:28:10;;;;;;;37.03;11.85;;;;;;;;;;5044988;28;20059;-71
2022/03/26 08:30:36;;;;;;;41.53;12.30;;;;;;;;;;5026279;28;20032;-71
2022/03/26 08:33:03;;;;;;;30.92;11.35;;;;;;;;;;5048700;28;20057;-71
2022/03/26 08:35:36;;;;;;;40.80;12.95;;;;;;;;;;5045429;28;20025;-70
2022/03/26 08:38:06;;;;;;;29.45;11.05;;;;;;;;;;5023480;28;20022;-70
2022/03/26 08:40:33;;;;;;;40.75;12.05;;;;;;;;;;5037695;28;20021;-70
2022/03/26 08:42:59;;;;;;;40.28;11.63;;;;;;;;;;5044117;28;20021;-71
2022/03/26 08:45:29;;;;;;;33.83;11.77;;;;;;;;;;5048658;28;20590;-72
2022/03/26 08:47:56;;;;;;;38.05;11.68;;;;;;;;;;5044248;28;20017;-70
2022/03/26 08:50:23;;;;;;;30.55;10.95;;;;;;;;;;5046596;28;20025;-71
2022/03/26 08:52:50;;;;;;;38.42;10.50;;;;;;;;;;5027543;28;20041;-71
2022/03/26 08:55:20;;;;;;;36.42;10.27;;;;;;;;;;5032191;28;20046;-71
2022/03/26 08:57:46;;;;;;;25.77;9.40;;;;;;;;;;5022596;28;20056;-71
2022/03/26 09:00:17;;;;;;;27.23;10.55;;;;;;;;;;5026984;28;20028;-71
2022/03/26 09:02:44;;;;;;;29.80;10.05;;;;;;;;;;5026747;28;20021;-72
2022/03/26 09:05:14;;;;;;;27.33;9.85;;;;;;;;;;5033930;28;20382;-71
2022/03/26 09:07:41;;;;;;;27.23;9.07;;;;;;;;;;5040045;28;20059;-71
2022/03/26 09:10:07;;;;;;;34.83;9.75;;;;;;;;;;5046534;28;20111;-72
2022/03/26 09:12:34;;;;;;;34.67;10.77;;;;;;;;;;5021973;28;20661;-70
2022/03/26 09:15:01;;;;;;;33.42;11.25;;;;;;;;;;5022873;28;20079;-71
2022/03/26 09:17:27;;;;;;;28.95;11.13;;;;;;;;;;5030704;28;20034;-71
2022/03/26 09:19:54;;;;;;;37.90;11.55;;;;;;;;;;5031065;28;20021;-71
2022/03/26 09:22:20;;;;;;;40.15;11.20;;;;;;;;;;5033610;28;20025;-71
2022/03/26 09:24:47;;;;;;;33.03;11.75;;;;;;;;;;5027175;28;20067;-71
2022/03/26 09:27:14;;;;;;;35.15;11.93;;;;;;;;;;5041756;28;20086;-71
2022/03/26 09:29:40;;;;;;;37.97;12.23;;;;;;;;;;5047214;28;20021;-71
2022/03/26 09:32:07;;;;;;;44.85;14.18;;;;;;;;;;5042502;28;20424;-72
2022/03/26 09:34:33;;;;;;;37.95;13.60;;;;;;;;;;5042672;28;20086;-71
2022/03/26 09:36:59;;;;;;;36.65;11.93;;;;;;;;;;5015047;28;20021;-70
2022/03/26 09:39:26;;;;;;;39.40;12.35;;;;;;;;;;5048155;28;20026;-71
2022/03/26 09:41:53;;;;;;;43.58;13.90;;;;;;;;;;5029504;28;20017;-72
2022/03/26 09:44:19;;;;;;;44.95;14.10;;;;;;;;;;5036968;28;20025;-73
2022/03/26 09:46:46;;;;;;;46.72;14.73;;;;;;;;;;5032000;28;20087;-71
2022/03/26 09:49:12;;;;;;;45.45;15.73;;;;;;;;;;5050586;28;20033;-71
2022/03/26 09:51:39;;;;;;;45.33;14.02;;;;;;;;;;5031827;28;20031;-71
2022/03/26 09:54:05;;;;;;;38.45;15.25;;;;;;;;;;5051258;28;20021;-70
2022/03/26 09:56:32;;;;;;;44.35;15.98;;;;;;;;;;5042296;28;20126;-70
2022/03/26 09:58:58;;;;;;;51.78;15.63;;;;;;;;;;5046061;28;20025;-69
2022/03/26 10:01:28;;;;;;;47.20;15.88;;;;;;;;;;5029973;28;20029;-71
2022/03/26 10:04:11;;;;;;;50.85;15.23;;;;;;;;;;5024373;28;20022;-72
2022/03/26 10:06:38;;;;;;;36.20;14.68;;;;;;;;;;5030442;28;20033;-71
2022/03/26 10:09:04;;;;;;;40.60;14.00;;;;;;;;;;5047662;28;20017;-70
2022/03/26 10:11:34;;;;;;;42.75;15.68;;;;;;;;;;5034527;28;20029;-70
2022/03/26 10:14:01;;;;;;;40.95;16.50;;;;;;;;;;5045568;28;20075;-70
2022/03/26 10:16:28;;;;;;;35.03;13.70;;;;;;;;;;5055539;28;20021;-72
2022/03/26 10:18:57;;;;;;;40.75;13.57;;;;;;;;;;5071747;28;20385;-71
2022/03/26 10:21:24;;;;;;;37.53;14.07;;;;;;;;;;5065211;28;20033;-71
2022/03/26 10:23:51;;;;;;;44.63;15.05;;;;;;;;;;5068080;28;20049;-71
2022/03/26 10:26:22;;;;;;;45.72;15.77;;;;;;;;;;5070165;28;20032;-71
2022/03/26 10:28:53;;;;;;;37.58;15.32;;;;;;;;;;5051862;28;20029;-71
2022/03/26 10:34:07;;;;;;;47.70;14.57;;;;;;;;;;5070657;28;20082;-72
2022/03/26 10:36:37;;;;;;;51.13;13.93;;;;;;;;;;5051397;28;20067;-70
2022/03/26 10:39:05;;;;;;;38.25;13.30;;;;;;;;;;5050181;28;20036;-71
2022/03/26 10:41:34;;;;;;;30.27;13.05;;;;;;;;;;5066115;28;20028;-70
2022/03/26 10:44:08;;;;;;;42.30;15.48;;;;;;;;;;5050834;28;20139;-69
2022/03/26 10:46:48;;;;;;;42.50;14.70;;;;;;;;;;5050774;28;20032;-72
2022/03/26 10:49:24;;;;;;;45.22;14.27;;;;;;;;;;5051758;28;20024;-72
2022/03/26 10:51:53;;;;;;;43.10;14.63;;;;;;;;;;5068741;28;20029;-70
2022/03/26 10:54:27;;;;;;;43.10;16.25;;;;;;;;;;5070537;28;20025;-70
2022/03/26 10:56:54;;;;;;;44.88;14.98;;;;;;;;;;5069128;28;20073;-71
2022/03/26 10:59:21;;;;;;;49.95;16.52;;;;;;;;;;5072628;28;20479;-72
2022/03/26 11:01:47;;;;;;;52.25;16.83;;;;;;;;;;5073377;28;20027;-72
2022/03/26 11:04:13;;;;;;;38.30;14.63;;;;;;;;;;5052378;28;20498;-72
2022/03/26 11:06:40;;;;;;;44.92;15.45;;;;;;;;;;5052184;28;20119;-72
2022/03/26 11:09:07;;;;;;;40.45;17.08;;;;;;;;;;5069012;28;20027;-72
2022/03/26 11:11:34;;;;;;;46.97;19.60;;;;;;;;;;5067368;28;20173;-70
2022/03/26 11:14:02;;;;;;;46.30;17.65;;;;;;;;;;5049501;28;20373;-70
2022/03/26 11:16:40;;;;;;;47.78;17.75;;;;;;;;;;5051846;28;20025;-72
2022/03/26 11:19:12;;;;;;;51.00;19.23;;;;;;;;;;5053363;28;20107;-72
2022/03/26 11:21:53;;;;;;;57.28;21.80;;;;;;;;;;5055097;28;20024;-72
2022/03/26 11:24:20;;;;;;;58.17;23.50;;;;;;;;;;5069156;28;20035;-72
2022/03/26 11:26:46;;;;;;;50.72;22.63;;;;;;;;;;5069717;28;20024;-72
2022/03/26 11:29:27;;;;;;;55.67;21.80;;;;;;;;;;5063873;28;20059;-74
2022/03/26 11:32:11;;;;;;;47.25;22.05;;;;;;;;;;5066113;28;20480;-72
2022/03/26 11:34:38;;;;;;;52.22;20.85;;;;;;;;;;5047188;28;20403;-72
2022/03/26 11:37:11;;;;;;;55.75;22.50;;;;;;;;;;5048962;28;20043;-72
2022/03/26 11:39:48;;;;;;;55.88;18.98;;;;;;;;;;5045472;28;20021;-71
2022/03/26 11:42:14;;;;;;;47.47;16.60;;;;;;;;;;5052624;28;20108;-74
2022/03/26 11:44:45;;;;;;;52.58;16.95;;;;;;;;;;5048568;28;20028;-73
2022/03/26 11:53:08;;;;;;;44.03;15.35;;;;;;;;;;5067243;28;20660;-73
2022/03/26 11:55:48;;;;;;;49.47;15.77;;;;;;;;;;5049688;28;20630;-73
2022/03/26 11:58:24;;;;;;;43.75;14.85;;;;;;;;;;5052051;28;20020;-72
2022/03/26 12:00:58;;;;;;;53.17;16.23;;;;;;;;;;5049615;28;20024;-72
2022/03/26 12:03:25;;;;;;;44.20;16.23;;;;;;;;;;5049967;28;20154;-72
2022/03/26 12:08:48;;;;;;;49.05;19.92;;;;;;;;;;5059502;28;20154;-73
2022/03/26 12:11:15;;;;;;;45.80;18.83;;;;;;;;;;5064799;28;20024;-77
2022/03/26 12:13:41;;;;;;;38.25;16.38;;;;;;;;;;5071303;28;20051;-73
2022/03/26 12:16:08;;;;;;;49.53;17.67;;;;;;;;;;5053181;28;20021;-73
2022/03/26 12:18:38;;;;;;;36.90;15.68;;;;;;;;;;5075421;28;20028;-73
2022/03/26 12:21:21;;;;;;;37.17;14.20;;;;;;;;;;5051340;28;20024;-74
2022/03/26 12:23:48;;;;;;;42.55;13.57;;;;;;;;;;5051447;28;20044;-74
2022/03/26 12:26:14;;;;;;;34.75;12.63;;;;;;;;;;5071034;28;20042;-73
2022/03/26 12:28:41;;;;;;;33.25;11.15;;;;;;;;;;5054879;28;20471;-73
2022/03/26 12:31:09;;;;;;;37.97;10.68;;;;;;;;;;5069270;28;20028;-73
2022/03/26 12:33:43;;;;;;;35.28;12.55;;;;;;;;;;5053592;28;20520;-73
2022/03/26 12:36:10;;;;;;;32.85;9.80;;;;;;;;;;5055396;28;20085;-72
2022/03/26 12:38:36;;;;;;;31.17;9.73;;;;;;;;;;5068894;28;20463;-73
2022/03/26 12:41:04;;;;;;;34.72;10.00;;;;;;;;;;5049970;28;20051;-72
2022/03/26 12:43:30;;;;;;;28.98;11.45;;;;;;;;;;5066592;28;20485;-72
2022/03/26 12:45:58;;;;;;;24.25;10.43;;;;;;;;;;5049045;28;20055;-73
2022/03/26 12:48:26;;;;;;;26.70;9.55;;;;;;;;;;5069860;28;20039;-74
2022/03/26 12:50:53;;;;;;;37.03;11.60;;;;;;;;;;5066436;28;20059;-74
2022/03/26 12:53:20;;;;;;;29.35;10.95;;;;;;;;;;5072695;28;20028;-73
2022/03/26 12:55:54;;;;;;;31.38;10.63;;;;;;;;;;5049824;28;20028;-73
2022/03/26 13:01:09;;;;;;;30.90;11.32;;;;;;;;;;5065160;28;20027;-74
2022/03/26 13:03:36;;;;;;;31.83;10.70;;;;;;;;;;5053902;28;20059;-72
2022/03/26 13:06:06;;;;;;;29.73;12.73;;;;;;;;;;5054147;28;20062;-72
2022/03/26 13:08:32;;;;;;;34.10;13.93;;;;;;;;;;5053613;28;20033;-72
2022/03/26 13:11:04;;;;;;;28.25;12.93;;;;;;;;;;5037959;28;20036;-72
2022/03/26 13:13:31;;;;;;;39.75;14.55;;;;;;;;;;5061842;28;20080;-72
2022/03/26 13:16:02;;;;;;;36.58;14.20;;;;;;;;;;5067254;28;20017;-72
2022/03/26 13:18:28;;;;;;;41.50;16.13;;;;;;;;;;5055668;28;20023;-72
2022/03/26 13:20:57;;;;;;;36.58;17.60;;;;;;;;;;5055879;28;20020;-72
2022/03/26 13:23:29;;;;;;;42.55;17.55;;;;;;;;;;5071216;28;20078;-71
2022/03/26 13:25:56;;;;;;;39.83;17.50;;;;;;;;;;5043033;28;20021;-72
2022/03/26 13:28:23;;;;;;;43.75;16.63;;;;;;;;;;5075681;28;20060;-72
2022/03/26 13:30:51;;;;;;;38.83;17.83;;;;;;;;;;5074567;28;20019;-72
2022/03/26 13:33:23;;;;;;;44.50;16.40;;;;;;;;;;5074094;28;20472;-72
2022/03/26 13:35:53;;;;;;;42.67;19.00;;;;;;;;;;5057509;28;20020;-72
2022/03/26 13:38:26;;;;;;;41.65;19.35;;;;;;;;;;5057615;28;20028;-71
2022/03/26 13:40:53;;;;;;;43.40;19.05;;;;;;;;;;5057468;28;20021;-74
2022/03/26 13:43:19;;;;;;;45.05;19.55;;;;;;;;;;5074909;28;20056;-74
2022/03/26 13:45:46;;;;;;;44.70;19.73;;;;;;;;;;5075668;28;20027;-74
2022/03/26 13:48:12;;;;;;;45.38;19.83;;;;;;;;;;5056839;28;20024;-72
2022/03/26 13:50:42;;;;;;;40.63;20.05;;;;;;;;;;5075210;28;20024;-73
2022/03/26 13:53:18;;;;;;;50.90;20.15;;;;;;;;;;5057227;28;20029;-72
2022/03/26 13:55:49;;;;;;;45.20;21.75;;;;;;;;;;5056500;28;20032;-73
2022/03/26 13:58:18;;;;;;;43.53;18.85;;;;;;;;;;5054710;28;20082;-73
2022/03/26 14:00:45;;;;;;;47.70;21.17;;;;;;;;;;5074208;28;20074;-74
2022/03/26 14:03:12;;;;;;;44.35;20.08;;;;;;;;;;5067670;28;20431;-74
2022/03/26 14:05:40;;;;;;;38.75;18.17;;;;;;;;;;5055200;28;20032;-74
2022/03/26 14:08:07;;;;;;;46.88;22.05;;;;;;;;;;5071238;28;20096;-73
2022/03/26 14:10:33;;;;;;;41.25;21.13;;;;;;;;;;5074302;28;20075;-74
2022/03/26 14:12:59;;;;;;;51.67;22.55;;;;;;;;;;5070723;28;20041;-75
2022/03/26 14:15:27;;;;;;;51.42;22.33;;;;;;;;;;5064567;28;20388;-72
2022/03/26 14:17:53;;;;;;;55.67;22.42;;;;;;;;;;5065966;28;20021;-73
2022/03/26 14:20:20;;;;;;;46.33;21.45;;;;;;;;;;5078276;28;20495;-73
2022/03/26 14:22:47;;;;;;;42.90;19.75;;;;;;;;;;5056086;28;20029;-73
2022/03/26 14:25:14;;;;;;;42.22;21.42;;;;;;;;;;5056657;28;20500;-74
2022/03/26 14:27:41;;;;;;;41.55;20.42;;;;;;;;;;5061272;28;20028;-74
2022/03/26 14:30:07;;;;;;;41.83;18.35;;;;;;;;;;5079302;28;20031;-74
2022/03/26 14:32:34;;;;;;;44.03;20.88;;;;;;;;;;5076985;28;20487;-72
2022/03/26 14:35:00;;;;;;;42.45;21.38;;;;;;;;;;5074120;28;20073;-72
2022/03/26 14:37:26;;;;;;;46.70;20.67;;;;;;;;;;5076564;28;20024;-73
2022/03/26 14:39:53;;;;;;;41.67;21.08;;;;;;;;;;5070284;28;20031;-73
2022/03/26 14:42:19;;;;;;;45.03;21.58;;;;;;;;;;5056262;28;20017;-76
2022/03/26 14:44:45;;;;;;;49.55;22.67;;;;;;;;;;5073630;28;20107;-73
2022/03/26 14:47:11;;;;;;;48.80;22.00;;;;;;;;;;5056245;28;20031;-73